This is the latest recevied weather packets stored in our database for station/object YF9UAG-15. If no packets are shown the sender has not sent any weather packets the latest 10 day(s).
| Time | Temp. | Humidity | Pressure | Rain* | Wind** | Luminosity | Snow |
|---|---|---|---|---|---|---|---|
| 1778028555 | 32.78° C | 89% | 1007.8 hPa | - | - | - | - |
| 1778028435 | 32.22° C | 91% | 1007.9 hPa | - | - | - | - |
| 1778028313 | 32.22° C | 91% | 1007.8 hPa | - | - | - | - |
| 1778028193 | 32.22° C | 93% | 1007.8 hPa | - | - | - | - |
| 1778028072 | 31.67° C | 95% | 1007.9 hPa | - | - | - | - |
| 1778027951 | 31.11° C | 97% | 1007.9 hPa | - | - | - | - |
| 1778027830 | 31.11° C | 96% | 1007.9 hPa | - | - | - | - |
| 1778027709 | 31.11° C | 97% | 1007.9 hPa | - | - | - | - |
| 1778027588 | 31.11° C | 98% | 1008 hPa | - | - | - | - |
| 1778027467 | 31.11° C | 100% | 1007.9 hPa | - | - | - | - |
| 1778027346 | 31.11° C | 99% | 1007.9 hPa | - | - | - | - |
| 1778027225 | 30.56° C | 99% | 1007.9 hPa | - | - | - | - |
| 1778027104 | 31.11° C | 98% | 1007.9 hPa | - | - | - | - |
| 1778026983 | 30.56° C | 100% | 1007.9 hPa | - | - | - | - |
| 1778026862 | 31.11° C | 99% | 1008 hPa | - | - | - | - |
| 1778026741 | 30.56° C | 98% | 1008 hPa | - | - | - | - |
| 1778026620 | 31.11° C | 97% | 1008 hPa | - | - | - | - |
| 1778026499 | 31.11° C | 98% | 1008 hPa | - | - | - | - |
| 1778026378 | 31.11° C | 97% | 1008 hPa | - | - | - | - |
| 1778026257 | 31.11° C | 98% | 1008.2 hPa | - | - | - | - |
| 1778026136 | 31.11° C | 98% | 1008.1 hPa | - | - | - | - |
| 1778026016 | 31.67° C | 95% | 1008.2 hPa | - | - | - | - |
| 1778025895 | 32.22° C | 93% | 1008.2 hPa | - | - | - | - |
| 1778025774 | 32.78° C | 89% | 1008.3 hPa | - | - | - | - |
| 1778025653 | 33.33° C | 88% | 1008.3 hPa | - | - | - | - |
* Rain since midnight (hover to see other rain measurements)
** Current wind speed in m/s (hover to see current wind gust speed)